Bari / Palese International Airport LIBD

Flugplatz Daten

Name: Bari / Palese International Airport

Ident: LIBD

Lat: 41,13890076

Long: 16,76059914

Platzhöhe: 177 ft

IataCode: BRI

City: Bari

Homepage: http://www.seap-puglia.it/default.asp?idlingua=2&idcontenuto=25

Metar

2022/08/13 17:50
LIBD 131750Z 23005KT 9999 FEW015TCU 22/20 Q1011

Taf

2022/08/13 18:00
TAF LIBD 131700Z 1318/1418 27008KT 9999 SCT030
TEMPO 1404/1409 4000 TSRA
BECMG 1406/1408 33012KT
Gewünschte Webcam nicht vorhanden? Dann fügen Sie eine hinzu. Sie wird dann so schnell wie möglich freigeschaltet
Url: Title: